sensor_id;sensor_type;location;lat;lon;timestamp;pressure;altitude;pressure_sealevel;temperature;humidity
59650;BME280;46162;57.568;25.814;2023-07-16T00:00:58;100989.31;;;9.45;100.00
59650;BME280;46162;57.568;25.814;2023-07-16T00:03:27;100993.56;;;9.38;100.00
59650;BME280;46162;57.568;25.814;2023-07-16T00:05:57;100991.06;;;9.15;100.00
59650;BME280;46162;57.568;25.814;2023-07-16T00:08:25;100996.03;;;8.89;100.00
59650;BME280;46162;57.568;25.814;2023-07-16T00:10:54;100996.50;;;8.73;100.00
59650;BME280;46162;57.568;25.814;2023-07-16T00:13:22;100989.06;;;8.87;100.00
59650;BME280;46162;57.568;25.814;2023-07-16T00:15:51;100989.50;;;8.92;100.00
59650;BME280;46162;57.568;25.814;2023-07-16T00:18:20;100989.16;;;8.75;100.00
59650;BME280;46162;57.568;25.814;2023-07-16T00:20:48;100992.25;;;8.71;100.00
59650;BME280;46162;57.568;25.814;2023-07-16T00:23:18;100998.06;;;8.76;100.00
59650;BME280;46162;57.568;25.814;2023-07-16T00:25:47;100989.44;;;9.03;100.00
59650;BME280;46162;57.568;25.814;2023-07-16T00:28:16;100996.16;;;9.18;100.00
59650;BME280;46162;57.568;25.814;2023-07-16T00:30:44;100999.72;;;9.19;100.00
59650;BME280;46162;57.568;25.814;2023-07-16T00:33:13;101000.34;;;9.01;100.00
59650;BME280;46162;57.568;25.814;2023-07-16T00:35:47;100998.13;;;8.86;100.00
59650;BME280;46162;57.568;25.814;2023-07-16T00:38:18;101003.59;;;8.74;100.00
59650;BME280;46162;57.568;25.814;2023-07-16T00:40:47;101006.47;;;8.61;100.00
59650;BME280;46162;57.568;25.814;2023-07-16T00:43:16;100995.38;;;8.55;100.00
59650;BME280;46162;57.568;25.814;2023-07-16T00:45:45;101000.44;;;8.48;100.00
59650;BME280;46162;57.568;25.814;2023-07-16T00:48:14;101008.06;;;8.32;100.00
59650;BME280;46162;57.568;25.814;2023-07-16T00:50:44;101009.22;;;8.18;100.00
59650;BME280;46162;57.568;25.814;2023-07-16T00:53:13;101014.50;;;8.08;100.00
59650;BME280;46162;57.568;25.814;2023-07-16T00:55:43;101018.28;;;8.17;100.00
59650;BME280;46162;57.568;25.814;2023-07-16T00:58:12;101021.34;;;8.12;100.00
59650;BME280;46162;57.568;25.814;2023-07-16T01:00:41;101022.19;;;8.13;100.00
59650;BME280;46162;57.568;25.814;2023-07-16T01:03:12;101024.59;;;8.27;100.00
59650;BME280;46162;57.568;25.814;2023-07-16T01:05:46;101031.22;;;8.23;100.00
59650;BME280;46162;57.568;25.814;2023-07-16T01:08:24;101028.19;;;8.16;100.00
59650;BME280;46162;57.568;25.814;2023-07-16T01:10:57;101025.78;;;8.34;100.00
59650;BME280;46162;57.568;25.814;2023-07-16T01:13:26;101017.72;;;8.34;100.00
59650;BME280;46162;57.568;25.814;2023-07-16T01:15:58;101020.69;;;8.31;100.00
59650;BME280;46162;57.568;25.814;2023-07-16T01:18:28;101014.38;;;8.21;100.00
59650;BME280;46162;57.568;25.814;2023-07-16T01:20:57;101015.13;;;8.12;100.00
59650;BME280;46162;57.568;25.814;2023-07-16T01:24:00;101021.72;;;8.08;100.00
59650;BME280;46162;57.568;25.814;2023-07-16T01:26:51;101022.91;;;7.94;100.00
59650;BME280;46162;57.568;25.814;2023-07-16T01:29:29;101030.22;;;7.92;100.00
59650;BME280;46162;57.568;25.814;2023-07-16T01:32:00;101028.84;;;7.97;100.00
59650;BME280;46162;57.568;25.814;2023-07-16T01:34:32;101025.22;;;7.87;100.00
59650;BME280;46162;57.568;25.814;2023-07-16T01:37:02;101026.22;;;7.86;100.00
59650;BME280;46162;57.568;25.814;2023-07-16T01:39:31;101022.41;;;7.89;100.00
59650;BME280;46162;57.568;25.814;2023-07-16T01:42:01;101020.16;;;8.05;100.00
59650;BME280;46162;57.568;25.814;2023-07-16T01:44:31;101014.41;;;8.10;100.00
59650;BME280;46162;57.568;25.814;2023-07-16T01:47:07;101012.38;;;8.23;100.00
59650;BME280;46162;57.568;25.814;2023-07-16T01:49:37;101015.63;;;8.38;100.00
59650;BME280;46162;57.568;25.814;2023-07-16T01:52:07;101005.84;;;8.48;100.00
59650;BME280;46162;57.568;25.814;2023-07-16T01:54:36;101011.97;;;8.39;100.00
59650;BME280;46162;57.568;25.814;2023-07-16T01:57:05;101010.88;;;8.30;100.00
59650;BME280;46162;57.568;25.814;2023-07-16T01:59:35;101007.00;;;8.23;100.00
59650;BME280;46162;57.568;25.814;2023-07-16T02:02:04;101008.53;;;8.16;100.00
59650;BME280;46162;57.568;25.814;2023-07-16T02:04:33;101005.47;;;8.09;100.00
59650;BME280;46162;57.568;25.814;2023-07-16T02:07:02;101000.69;;;8.13;100.00
59650;BME280;46162;57.568;25.814;2023-07-16T02:09:31;101007.91;;;8.12;100.00
59650;BME280;46162;57.568;25.814;2023-07-16T02:11:59;101008.28;;;8.08;100.00
59650;BME280;46162;57.568;25.814;2023-07-16T02:14:28;101008.34;;;7.96;100.00
59650;BME280;46162;57.568;25.814;2023-07-16T02:16:58;101010.03;;;7.97;100.00
59650;BME280;46162;57.568;25.814;2023-07-16T02:19:26;101010.50;;;8.03;100.00
59650;BME280;46162;57.568;25.814;2023-07-16T02:21:55;101020.16;;;8.05;100.00
59650;BME280;46162;57.568;25.814;2023-07-16T02:24:24;101024.69;;;8.05;100.00
59650;BME280;46162;57.568;25.814;2023-07-16T02:26:53;101017.63;;;8.04;100.00
59650;BME280;46162;57.568;25.814;2023-07-16T02:29:21;101022.72;;;8.07;100.00
59650;BME280;46162;57.568;25.814;2023-07-16T02:31:50;101027.34;;;8.16;100.00
59650;BME280;46162;57.568;25.814;2023-07-16T02:34:20;101022.44;;;8.21;100.00
59650;BME280;46162;57.568;25.814;2023-07-16T02:36:48;101019.59;;;8.23;100.00
59650;BME280;46162;57.568;25.814;2023-07-16T02:39:17;101023.03;;;8.25;100.00
59650;BME280;46162;57.568;25.814;2023-07-16T02:41:45;101029.81;;;8.40;100.00
59650;BME280;46162;57.568;25.814;2023-07-16T02:44:14;101024.25;;;8.53;100.00
59650;BME280;46162;57.568;25.814;2023-07-16T02:46:43;101017.13;;;8.63;100.00
59650;BME280;46162;57.568;25.814;2023-07-16T02:49:12;101019.75;;;8.74;100.00
59650;BME280;46162;57.568;25.814;2023-07-16T02:51:42;101016.66;;;8.79;100.00
59650;BME280;46162;57.568;25.814;2023-07-16T02:54:11;101024.91;;;8.87;100.00
59650;BME280;46162;57.568;25.814;2023-07-16T02:56:39;101017.28;;;8.92;100.00
59650;BME280;46162;57.568;25.814;2023-07-16T02:59:08;101025.69;;;8.99;100.00
59650;BME280;46162;57.568;25.814;2023-07-16T03:01:36;101034.69;;;9.09;100.00
59650;BME280;46162;57.568;25.814;2023-07-16T03:04:05;101027.75;;;9.16;100.00
59650;BME280;46162;57.568;25.814;2023-07-16T03:06:34;101030.78;;;9.23;100.00
59650;BME280;46162;57.568;25.814;2023-07-16T03:09:04;101025.56;;;9.31;100.00
59650;BME280;46162;57.568;25.814;2023-07-16T03:11:33;101028.03;;;9.44;100.00
59650;BME280;46162;57.568;25.814;2023-07-16T03:14:02;101032.19;;;9.58;100.00
59650;BME280;46162;57.568;25.814;2023-07-16T03:16:30;101027.56;;;9.69;100.00
59650;BME280;46162;57.568;25.814;2023-07-16T03:18:59;101022.03;;;9.81;100.00
59650;BME280;46162;57.568;25.814;2023-07-16T03:21:30;101015.13;;;9.98;100.00
59650;BME280;46162;57.568;25.814;2023-07-16T03:23:59;101022.94;;;10.10;100.00
59650;BME280;46162;57.568;25.814;2023-07-16T03:26:29;101011.59;;;10.26;100.00
59650;BME280;46162;57.568;25.814;2023-07-16T03:28:58;101017.88;;;10.37;100.00
59650;BME280;46162;57.568;25.814;2023-07-16T03:31:27;101020.41;;;10.48;100.00
59650;BME280;46162;57.568;25.814;2023-07-16T03:33:57;101013.72;;;10.62;100.00
59650;BME280;46162;57.568;25.814;2023-07-16T03:36:29;101016.97;;;10.75;100.00
59650;BME280;46162;57.568;25.814;2023-07-16T03:38:57;101002.59;;;10.84;100.00
59650;BME280;46162;57.568;25.814;2023-07-16T03:41:26;101004.13;;;10.96;100.00
59650;BME280;46162;57.568;25.814;2023-07-16T03:43:56;101004.81;;;11.08;100.00
59650;BME280;46162;57.568;25.814;2023-07-16T03:46:26;100998.75;;;11.24;100.00
59650;BME280;46162;57.568;25.814;2023-07-16T03:48:54;101006.25;;;11.40;100.00
59650;BME280;46162;57.568;25.814;2023-07-16T03:51:23;101000.50;;;11.53;100.00
59650;BME280;46162;57.568;25.814;2023-07-16T03:53:53;101004.97;;;11.62;100.00
59650;BME280;46162;57.568;25.814;2023-07-16T03:56:22;100992.75;;;11.86;100.00
59650;BME280;46162;57.568;25.814;2023-07-16T03:58:51;100995.41;;;11.95;100.00
59650;BME280;46162;57.568;25.814;2023-07-16T04:01:22;100998.19;;;12.03;100.00
59650;BME280;46162;57.568;25.814;2023-07-16T04:03:51;100999.28;;;12.29;100.00
59650;BME280;46162;57.568;25.814;2023-07-16T04:06:20;100998.72;;;12.43;100.00
59650;BME280;46162;57.568;25.814;2023-07-16T04:08:49;101000.81;;;12.49;100.00
59650;BME280;46162;57.568;25.814;2023-07-16T04:11:18;100984.78;;;12.56;100.00
59650;BME280;46162;57.568;25.814;2023-07-16T04:13:46;100988.63;;;12.71;100.00
59650;BME280;46162;57.568;25.814;2023-07-16T04:16:15;100990.44;;;12.88;100.00
59650;BME280;46162;57.568;25.814;2023-07-16T04:18:46;100992.44;;;13.12;100.00
59650;BME280;46162;57.568;25.814;2023-07-16T04:21:14;100984.72;;;13.26;100.00
59650;BME280;46162;57.568;25.814;2023-07-16T04:23:43;100992.41;;;13.30;100.00
59650;BME280;46162;57.568;25.814;2023-07-16T04:26:12;100994.31;;;13.46;100.00
59650;BME280;46162;57.568;25.814;2023-07-16T04:28:41;100994.72;;;13.60;100.00
59650;BME280;46162;57.568;25.814;2023-07-16T04:31:10;100986.63;;;13.76;100.00
59650;BME280;46162;57.568;25.814;2023-07-16T04:33:38;100997.22;;;14.04;100.00
59650;BME280;46162;57.568;25.814;2023-07-16T04:36:08;100986.91;;;14.32;100.00
59650;BME280;46162;57.568;25.814;2023-07-16T04:38:37;100995.25;;;14.55;100.00
59650;BME280;46162;57.568;25.814;2023-07-16T04:41:06;100981.84;;;14.61;100.00
59650;BME280;46162;57.568;25.814;2023-07-16T04:43:34;100986.75;;;14.74;100.00
59650;BME280;46162;57.568;25.814;2023-07-16T04:46:03;100988.25;;;14.69;100.00
59650;BME280;46162;57.568;25.814;2023-07-16T04:48:32;100979.41;;;14.91;100.00
59650;BME280;46162;57.568;25.814;2023-07-16T04:51:01;100981.06;;;15.00;100.00
59650;BME280;46162;57.568;25.814;2023-07-16T04:53:31;100980.00;;;15.26;100.00
59650;BME280;46162;57.568;25.814;2023-07-16T04:56:00;100981.78;;;15.42;100.00
59650;BME280;46162;57.568;25.814;2023-07-16T04:58:29;100981.97;;;15.80;100.00
59650;BME280;46162;57.568;25.814;2023-07-16T05:00:57;100979.22;;;15.88;100.00
59650;BME280;46162;57.568;25.814;2023-07-16T05:03:26;100981.84;;;16.27;100.00
59650;BME280;46162;57.568;25.814;2023-07-16T05:05:55;100985.75;;;16.48;100.00
59650;BME280;46162;57.568;25.814;2023-07-16T05:08:24;100984.19;;;16.53;100.00
59650;BME280;46162;57.568;25.814;2023-07-16T05:10:54;100979.78;;;16.52;100.00
59650;BME280;46162;57.568;25.814;2023-07-16T05:13:23;100981.75;;;16.82;100.00
59650;BME280;46162;57.568;25.814;2023-07-16T05:15:52;100985.78;;;16.86;100.00
59650;BME280;46162;57.568;25.814;2023-07-16T05:18:20;100987.84;;;16.98;100.00
59650;BME280;46162;57.568;25.814;2023-07-16T05:20:49;100995.59;;;17.10;100.00
59650;BME280;46162;57.568;25.814;2023-07-16T05:23:19;100996.16;;;17.20;100.00
59650;BME280;46162;57.568;25.814;2023-07-16T05:25:49;100984.69;;;17.39;100.00
59650;BME280;46162;57.568;25.814;2023-07-16T05:28:19;100994.19;;;17.58;100.00
59650;BME280;46162;57.568;25.814;2023-07-16T05:30:57;100994.78;;;17.75;100.00
59650;BME280;46162;57.568;25.814;2023-07-16T05:33:26;100987.44;;;18.12;100.00
59650;BME280;46162;57.568;25.814;2023-07-16T05:35:55;100994.06;;;18.18;100.00
59650;BME280;46162;57.568;25.814;2023-07-16T05:38:23;101000.75;;;18.15;100.00
59650;BME280;46162;57.568;25.814;2023-07-16T05:40:52;100996.66;;;18.26;100.00
59650;BME280;46162;57.568;25.814;2023-07-16T05:43:22;100992.34;;;18.60;100.00
59650;BME280;46162;57.568;25.814;2023-07-16T05:45:51;100985.41;;;18.64;100.00
59650;BME280;46162;57.568;25.814;2023-07-16T05:48:19;100990.38;;;18.75;100.00
59650;BME280;46162;57.568;25.814;2023-07-16T05:50:48;100990.19;;;18.77;100.00
59650;BME280;46162;57.568;25.814;2023-07-16T05:53:17;100981.63;;;18.86;100.00
59650;BME280;46162;57.568;25.814;2023-07-16T05:55:45;100988.16;;;18.85;100.00
59650;BME280;46162;57.568;25.814;2023-07-16T05:58:16;100992.88;;;18.98;100.00
59650;BME280;46162;57.568;25.814;2023-07-16T06:00:46;100983.72;;;19.12;100.00
59650;BME280;46162;57.568;25.814;2023-07-16T06:03:15;100976.75;;;19.10;100.00
59650;BME280;46162;57.568;25.814;2023-07-16T06:05:46;100984.78;;;19.11;100.00
59650;BME280;46162;57.568;25.814;2023-07-16T06:08:14;100988.63;;;19.24;100.00
59650;BME280;46162;57.568;25.814;2023-07-16T06:10:43;100981.28;;;19.31;100.00
59650;BME280;46162;57.568;25.814;2023-07-16T06:13:12;100984.69;;;19.74;100.00
59650;BME280;46162;57.568;25.814;2023-07-16T06:15:40;100990.41;;;19.93;100.00
59650;BME280;46162;57.568;25.814;2023-07-16T06:18:11;100989.63;;;20.06;100.00
59650;BME280;46162;57.568;25.814;2023-07-16T06:20:43;100982.72;;;20.23;100.00
59650;BME280;46162;57.568;25.814;2023-07-16T06:23:12;100983.16;;;20.33;100.00
59650;BME280;46162;57.568;25.814;2023-07-16T06:25:43;100970.94;;;20.56;100.00
59650;BME280;46162;57.568;25.814;2023-07-16T06:28:14;100979.38;;;20.48;100.00
59650;BME280;46162;57.568;25.814;2023-07-16T06:30:42;100966.06;;;20.38;100.00
59650;BME280;46162;57.568;25.814;2023-07-16T06:33:13;100969.66;;;20.52;100.00
59650;BME280;46162;57.568;25.814;2023-07-16T06:35:44;100960.56;;;20.45;100.00
59650;BME280;46162;57.568;25.814;2023-07-16T06:38:14;100966.25;;;20.50;100.00
59650;BME280;46162;57.568;25.814;2023-07-16T06:40:46;100960.19;;;20.61;100.00
59650;BME280;46162;57.568;25.814;2023-07-16T06:43:16;100960.19;;;20.68;100.00
59650;BME280;46162;57.568;25.814;2023-07-16T06:45:45;100949.81;;;20.76;100.00
59650;BME280;46162;57.568;25.814;2023-07-16T06:48:15;100943.47;;;20.89;100.00
59650;BME280;46162;57.568;25.814;2023-07-16T06:50:43;100949.16;;;21.01;100.00
59650;BME280;46162;57.568;25.814;2023-07-16T06:53:12;100935.16;;;21.29;100.00
59650;BME280;46162;57.568;25.814;2023-07-16T06:55:41;100930.47;;;21.36;100.00
59650;BME280;46162;57.568;25.814;2023-07-16T06:58:10;100927.09;;;21.41;100.00
59650;BME280;46162;57.568;25.814;2023-07-16T07:00:39;100922.88;;;21.45;100.00
59650;BME280;46162;57.568;25.814;2023-07-16T07:03:08;100919.00;;;21.59;100.00
59650;BME280;46162;57.568;25.814;2023-07-16T07:05:42;100915.56;;;22.02;100.00
59650;BME280;46162;57.568;25.814;2023-07-16T07:08:10;100912.38;;;22.05;100.00
59650;BME280;46162;57.568;25.814;2023-07-16T07:10:39;100914.53;;;22.03;100.00
59650;BME280;46162;57.568;25.814;2023-07-16T07:13:08;100905.81;;;22.06;100.00
59650;BME280;46162;57.568;25.814;2023-07-16T07:15:36;100911.69;;;22.10;100.00
59650;BME280;46162;57.568;25.814;2023-07-16T07:18:05;100914.50;;;22.35;100.00
59650;BME280;46162;57.568;25.814;2023-07-16T07:20:34;100904.25;;;22.67;100.00
59650;BME280;46162;57.568;25.814;2023-07-16T07:23:04;100914.69;;;22.84;100.00
59650;BME280;46162;57.568;25.814;2023-07-16T07:25:33;100914.47;;;22.85;100.00
59650;BME280;46162;57.568;25.814;2023-07-16T07:28:03;100898.13;;;22.90;93.36
59650;BME280;46162;57.568;25.814;2023-07-16T07:30:32;100909.16;;;23.09;79.33
59650;BME280;46162;57.568;25.814;2023-07-16T07:33:00;100917.19;;;23.10;90.55
59650;BME280;46162;57.568;25.814;2023-07-16T07:35:30;100913.47;;;23.05;93.68
59650;BME280;46162;57.568;25.814;2023-07-16T07:37:58;100907.88;;;22.86;94.66
59650;BME280;46162;57.568;25.814;2023-07-16T07:40:28;100897.19;;;22.78;93.88
59650;BME280;46162;57.568;25.814;2023-07-16T07:42:57;100893.22;;;22.92;88.76
59650;BME280;46162;57.568;25.814;2023-07-16T07:45:26;100892.88;;;23.07;90.67
59650;BME280;46162;57.568;25.814;2023-07-16T07:47:55;100878.63;;;23.10;92.19
59650;BME280;46162;57.568;25.814;2023-07-16T07:50:23;100878.16;;;23.32;76.48
59650;BME280;46162;57.568;25.814;2023-07-16T07:52:52;100881.00;;;23.25;90.00
59650;BME280;46162;57.568;25.814;2023-07-16T07:55:21;100888.47;;;23.36;85.19
59650;BME280;46162;57.568;25.814;2023-07-16T07:57:51;100888.19;;;23.26;89.38
59650;BME280;46162;57.568;25.814;2023-07-16T08:00:21;100879.03;;;23.44;83.53
59650;BME280;46162;57.568;25.814;2023-07-16T08:02:50;100882.28;;;23.41;85.24
59650;BME280;46162;57.568;25.814;2023-07-16T08:05:19;100887.38;;;23.56;87.84
59650;BME280;46162;57.568;25.814;2023-07-16T08:07:48;100889.19;;;23.80;79.49
59650;BME280;46162;57.568;25.814;2023-07-16T08:10:16;100886.91;;;23.77;80.16
59650;BME280;46162;57.568;25.814;2023-07-16T08:12:45;100879.22;;;23.79;76.78
59650;BME280;46162;57.568;25.814;2023-07-16T08:15:15;100883.63;;;23.99;70.07
59650;BME280;46162;57.568;25.814;2023-07-16T08:17:45;100877.56;;;23.90;76.08
59650;BME280;46162;57.568;25.814;2023-07-16T08:20:17;100877.53;;;23.78;81.28
59650;BME280;46162;57.568;25.814;2023-07-16T08:22:46;100871.09;;;23.66;85.02
59650;BME280;46162;57.568;25.814;2023-07-16T08:25:14;100869.56;;;23.70;84.37
59650;BME280;46162;57.568;25.814;2023-07-16T08:27:43;100867.66;;;23.71;82.99
59650;BME280;46162;57.568;25.814;2023-07-16T08:30:15;100863.78;;;23.60;84.35
59650;BME280;46162;57.568;25.814;2023-07-16T08:32:43;100874.47;;;23.68;81.15
59650;BME280;46162;57.568;25.814;2023-07-16T08:35:12;100865.47;;;23.61;84.44
59650;BME280;46162;57.568;25.814;2023-07-16T08:37:44;100857.78;;;23.93;81.58
59650;BME280;46162;57.568;25.814;2023-07-16T08:40:13;100852.69;;;24.09;74.48
59650;BME280;46162;57.568;25.814;2023-07-16T08:42:44;100851.25;;;24.06;81.21
59650;BME280;46162;57.568;25.814;2023-07-16T08:45:15;100842.72;;;24.08;76.94
59650;BME280;46162;57.568;25.814;2023-07-16T08:47:47;100842.53;;;24.21;76.01
59650;BME280;46162;57.568;25.814;2023-07-16T08:50:16;100848.25;;;24.19;74.46
59650;BME280;46162;57.568;25.814;2023-07-16T08:52:47;100844.91;;;24.17;70.86
59650;BME280;46162;57.568;25.814;2023-07-16T08:55:16;100835.66;;;24.35;69.34
59650;BME280;46162;57.568;25.814;2023-07-16T08:57:45;100837.59;;;24.35;77.82
59650;BME280;46162;57.568;25.814;2023-07-16T09:00:16;100828.00;;;24.37;73.99
59650;BME280;46162;57.568;25.814;2023-07-16T09:02:45;100823.81;;;24.46;75.74
59650;BME280;46162;57.568;25.814;2023-07-16T09:05:14;100822.13;;;24.57;74.53
59650;BME280;46162;57.568;25.814;2023-07-16T09:08:03;100825.22;;;24.73;65.71
59650;BME280;46162;57.568;25.814;2023-07-16T09:10:31;100831.00;;;24.83;71.14
59650;BME280;46162;57.568;25.814;2023-07-16T09:13:00;100819.19;;;24.87;67.98
59650;BME280;46162;57.568;25.814;2023-07-16T09:15:30;100827.84;;;24.91;68.29
59650;BME280;46162;57.568;25.814;2023-07-16T09:18:02;100815.19;;;25.07;70.17
59650;BME280;46162;57.568;25.814;2023-07-16T09:20:31;100821.41;;;25.14;70.71
59650;BME280;46162;57.568;25.814;2023-07-16T09:23:00;100821.91;;;25.23;71.95
59650;BME280;46162;57.568;25.814;2023-07-16T09:25:29;100807.59;;;25.26;66.73
59650;BME280;46162;57.568;25.814;2023-07-16T09:28:01;100816.47;;;25.28;69.03
59650;BME280;46162;57.568;25.814;2023-07-16T09:30:33;100807.28;;;25.39;67.79
59650;BME280;46162;57.568;25.814;2023-07-16T09:33:10;100808.97;;;25.40;72.09
59650;BME280;46162;57.568;25.814;2023-07-16T09:35:39;100802.25;;;25.65;62.00
59650;BME280;46162;57.568;25.814;2023-07-16T09:38:09;100798.97;;;25.68;68.68
59650;BME280;46162;57.568;25.814;2023-07-16T09:40:38;100796.97;;;25.80;67.71
59650;BME280;46162;57.568;25.814;2023-07-16T09:43:10;100793.53;;;25.73;65.63
59650;BME280;46162;57.568;25.814;2023-07-16T09:45:42;100797.97;;;25.57;66.42
59650;BME280;46162;57.568;25.814;2023-07-16T09:48:11;100795.31;;;25.79;69.80
59650;BME280;46162;57.568;25.814;2023-07-16T09:50:45;100791.81;;;26.01;64.46
59650;BME280;46162;57.568;25.814;2023-07-16T09:53:19;100795.16;;;26.03;65.60
59650;BME280;46162;57.568;25.814;2023-07-16T09:55:51;100788.53;;;26.04;62.02
59650;BME280;46162;57.568;25.814;2023-07-16T09:58:21;100790.28;;;26.10;66.30
59650;BME280;46162;57.568;25.814;2023-07-16T10:00:51;100795.06;;;26.14;66.59
59650;BME280;46162;57.568;25.814;2023-07-16T10:03:20;100783.72;;;26.16;57.81
59650;BME280;46162;57.568;25.814;2023-07-16T10:05:50;100789.28;;;26.16;63.89
59650;BME280;46162;57.568;25.814;2023-07-16T10:08:20;100782.81;;;26.27;65.60
59650;BME280;46162;57.568;25.814;2023-07-16T10:10:53;100773.97;;;26.47;68.30
59650;BME280;46162;57.568;25.814;2023-07-16T10:13:24;100772.19;;;26.58;53.05
59650;BME280;46162;57.568;25.814;2023-07-16T10:15:56;100774.91;;;26.53;63.39
59650;BME280;46162;57.568;25.814;2023-07-16T10:18:26;100775.88;;;26.64;62.55
59650;BME280;46162;57.568;25.814;2023-07-16T10:21:01;100782.31;;;26.69;61.73
59650;BME280;46162;57.568;25.814;2023-07-16T10:23:38;100781.28;;;26.75;61.91
59650;BME280;46162;57.568;25.814;2023-07-16T10:26:09;100766.81;;;26.68;52.48
59650;BME280;46162;57.568;25.814;2023-07-16T10:28:44;100767.97;;;26.72;62.60
59650;BME280;46162;57.568;25.814;2023-07-16T10:31:22;100764.94;;;26.74;60.71
59650;BME280;46162;57.568;25.814;2023-07-16T10:33:59;100760.41;;;26.90;61.04
59650;BME280;46162;57.568;25.814;2023-07-16T10:36:28;100756.16;;;27.04;55.39
59650;BME280;46162;57.568;25.814;2023-07-16T10:39:02;100751.19;;;27.06;56.67
59650;BME280;46162;57.568;25.814;2023-07-16T10:41:31;100740.41;;;27.10;54.08
59650;BME280;46162;57.568;25.814;2023-07-16T10:44:01;100746.53;;;27.12;60.43
59650;BME280;46162;57.568;25.814;2023-07-16T10:46:32;100745.13;;;27.09;63.45
59650;BME280;46162;57.568;25.814;2023-07-16T10:49:01;100743.69;;;27.29;60.05
59650;BME280;46162;57.568;25.814;2023-07-16T10:51:30;100731.63;;;27.40;61.20
59650;BME280;46162;57.568;25.814;2023-07-16T10:53:59;100720.75;;;27.33;60.87
59650;BME280;46162;57.568;25.814;2023-07-16T10:56:27;100716.66;;;27.41;63.06
59650;BME280;46162;57.568;25.814;2023-07-16T10:58:56;100730.72;;;27.66;57.06
59650;BME280;46162;57.568;25.814;2023-07-16T11:01:25;100731.06;;;27.70;58.56
59650;BME280;46162;57.568;25.814;2023-07-16T11:04:00;100730.72;;;27.66;58.65
59650;BME280;46162;57.568;25.814;2023-07-16T11:06:28;100736.88;;;27.74;59.31
59650;BME280;46162;57.568;25.814;2023-07-16T11:09:06;100735.22;;;27.73;56.45
59650;BME280;46162;57.568;25.814;2023-07-16T11:11:35;100718.94;;;27.49;52.06
59650;BME280;46162;57.568;25.814;2023-07-16T11:14:04;100713.34;;;27.44;56.95
59650;BME280;46162;57.568;25.814;2023-07-16T11:16:34;100709.44;;;27.40;58.42
59650;BME280;46162;57.568;25.814;2023-07-16T11:19:05;100710.25;;;27.13;57.17
59650;BME280;46162;57.568;25.814;2023-07-16T11:21:34;100715.75;;;27.08;57.84
59650;BME280;46162;57.568;25.814;2023-07-16T11:24:09;100716.09;;;26.90;56.33
59650;BME280;46162;57.568;25.814;2023-07-16T11:26:38;100716.50;;;26.76;56.89
59650;BME280;46162;57.568;25.814;2023-07-16T11:29:13;100712.31;;;26.74;56.86
59650;BME280;46162;57.568;25.814;2023-07-16T11:31:42;100710.84;;;26.66;57.06
59650;BME280;46162;57.568;25.814;2023-07-16T11:34:14;100704.66;;;26.81;61.77
59650;BME280;46162;57.568;25.814;2023-07-16T11:36:43;100701.34;;;26.84;59.29
59650;BME280;46162;57.568;25.814;2023-07-16T11:39:11;100702.19;;;27.12;61.75
59650;BME280;46162;57.568;25.814;2023-07-16T11:41:40;100693.09;;;27.16;55.93
59650;BME280;46162;57.568;25.814;2023-07-16T11:44:09;100694.28;;;27.20;65.33
59650;BME280;46162;57.568;25.814;2023-07-16T11:46:37;100680.47;;;27.26;60.74
59650;BME280;46162;57.568;25.814;2023-07-16T11:49:06;100671.63;;;27.29;57.22
59650;BME280;46162;57.568;25.814;2023-07-16T11:51:36;100668.16;;;27.16;60.76
59650;BME280;46162;57.568;25.814;2023-07-16T11:54:05;100664.88;;;27.19;60.44
59650;BME280;46162;57.568;25.814;2023-07-16T11:56:33;100671.72;;;27.39;58.28
59650;BME280;46162;57.568;25.814;2023-07-16T11:59:02;100665.16;;;27.50;57.42
59650;BME280;46162;57.568;25.814;2023-07-16T12:01:31;100665.00;;;27.35;61.16
59650;BME280;46162;57.568;25.814;2023-07-16T12:03:59;100652.22;;;27.29;59.28
59650;BME280;46162;57.568;25.814;2023-07-16T12:06:28;100642.53;;;27.04;53.51
59650;BME280;46162;57.568;25.814;2023-07-16T12:08:58;100638.94;;;27.03;60.45
59650;BME280;46162;57.568;25.814;2023-07-16T12:11:27;100644.06;;;26.90;60.86
59650;BME280;46162;57.568;25.814;2023-07-16T12:13:56;100654.56;;;26.88;65.91
59650;BME280;46162;57.568;25.814;2023-07-16T12:16:25;100642.88;;;26.80;61.21
59650;BME280;46162;57.568;25.814;2023-07-16T12:18:53;100632.72;;;26.64;55.84
59650;BME280;46162;57.568;25.814;2023-07-16T12:21:22;100635.59;;;26.52;59.13
59650;BME280;46162;57.568;25.814;2023-07-16T12:23:50;100624.63;;;26.57;60.11
59650;BME280;46162;57.568;25.814;2023-07-16T12:26:20;100633.59;;;26.48;62.16
59650;BME280;46162;57.568;25.814;2023-07-16T12:28:49;100630.97;;;26.58;56.80
59650;BME280;46162;57.568;25.814;2023-07-16T12:31:18;100632.09;;;26.57;62.79
59650;BME280;46162;57.568;25.814;2023-07-16T12:33:47;100625.13;;;26.54;61.09
59650;BME280;46162;57.568;25.814;2023-07-16T12:36:20;100620.59;;;26.48;58.47
59650;BME280;46162;57.568;25.814;2023-07-16T12:38:49;100622.88;;;26.51;57.52
59650;BME280;46162;57.568;25.814;2023-07-16T12:41:17;100623.72;;;26.30;62.65
59650;BME280;46162;57.568;25.814;2023-07-16T12:43:47;100624.09;;;26.38;62.95
59650;BME280;46162;57.568;25.814;2023-07-16T12:46:16;100616.16;;;26.47;62.06
59650;BME280;46162;57.568;25.814;2023-07-16T12:48:45;100620.75;;;26.36;60.71
59650;BME280;46162;57.568;25.814;2023-07-16T12:51:13;100610.25;;;26.38;61.04